createdAt,value
2022-12-31T00:02:07.785Z,73.77
2022-12-31T00:04:34.569Z,66.93
2022-12-31T00:07:01.281Z,67.33
2022-12-31T00:09:27.957Z,70.23
2022-12-31T00:11:54.579Z,65.13
2022-12-31T00:14:21.252Z,59.13
2022-12-31T00:16:47.970Z,51.57
2022-12-31T00:19:14.610Z,53.47
2022-12-31T00:21:41.392Z,57.93
2022-12-31T00:24:08.832Z,58.83
2022-12-31T00:26:35.912Z,53.47
2022-12-31T00:29:03.871Z,58.80
2022-12-31T00:31:33.731Z,52.90
2022-12-31T00:34:01.410Z,72.13
2022-12-31T00:36:34.731Z,62.27
2022-12-31T00:39:03.299Z,77.60
2022-12-31T00:41:30.677Z,59.60
2022-12-31T00:43:57.712Z,62.97
2022-12-31T00:46:25.322Z,70.67
2022-12-31T00:48:52.352Z,120.20
2022-12-31T00:51:22.463Z,100.83
2022-12-31T00:53:49.487Z,73.53
2022-12-31T00:56:20.177Z,46.47
2022-12-31T00:58:47.533Z,32.93
2022-12-31T01:01:20.489Z,40.50
2022-12-31T01:03:49.570Z,87.73
2022-12-31T01:06:16.665Z,153.03
2022-12-31T01:08:43.853Z,80.53
2022-12-31T01:11:24.563Z,57.13
2022-12-31T01:14:03.279Z,49.13
2022-12-31T01:16:33.948Z,52.43
2022-12-31T01:19:03.101Z,60.00
2022-12-31T01:21:33.292Z,60.90
2022-12-31T01:23:59.994Z,67.87
2022-12-31T01:26:27.645Z,57.10
2022-12-31T01:28:55.036Z,54.80
2022-12-31T01:31:23.357Z,49.33
2022-12-31T01:33:51.397Z,39.50
2022-12-31T01:36:25.940Z,55.40
2022-12-31T01:38:54.438Z,54.07
2022-12-31T01:41:25.649Z,35.97
2022-12-31T01:43:55.545Z,25.77
2022-12-31T01:46:28.329Z,28.70
2022-12-31T01:49:01.482Z,44.50
2022-12-31T01:51:31.825Z,51.87
2022-12-31T01:54:00.679Z,46.07
2022-12-31T01:56:27.399Z,47.43
2022-12-31T01:58:57.052Z,53.90
2022-12-31T02:01:31.163Z,101.83
2022-12-31T02:04:00.571Z,78.55
2022-12-31T02:06:37.565Z,77.67
2022-12-31T02:09:04.337Z,67.17
2022-12-31T02:11:36.609Z,73.37
2022-12-31T02:14:08.214Z,51.00
2022-12-31T02:16:42.240Z,43.13
2022-12-31T02:19:43.009Z,132.98
2022-12-31T02:22:14.086Z,60.57
2022-12-31T02:24:50.030Z,66.90
2022-12-31T02:27:40.976Z,71.60
2022-12-31T02:30:15.306Z,76.43
2022-12-31T02:33:02.615Z,89.28
2022-12-31T02:35:37.126Z,73.53
2022-12-31T02:38:18.356Z,65.32
2022-12-31T02:40:47.147Z,49.03
2022-12-31T02:43:14.506Z,44.13
2022-12-31T02:45:45.860Z,42.97
2022-12-31T02:48:30.911Z,44.73
2022-12-31T02:51:09.882Z,51.63
2022-12-31T02:54:10.966Z,63.60
2022-12-31T02:56:57.403Z,59.83
2022-12-31T02:59:58.755Z,56.70
2022-12-31T03:02:30.526Z,59.83
2022-12-31T03:04:58.733Z,50.37
2022-12-31T03:07:31.936Z,48.10
2022-12-31T03:09:59.895Z,38.30
2022-12-31T03:12:47.012Z,44.17
2022-12-31T03:15:21.622Z,45.93
2022-12-31T03:18:00.669Z,92.05
2022-12-31T03:20:51.373Z,84.30
2022-12-31T03:23:22.537Z,69.03
2022-12-31T03:25:49.486Z,88.07
2022-12-31T03:28:19.264Z,89.87
2022-12-31T03:30:48.770Z,84.27
2022-12-31T03:33:16.505Z,84.60
2022-12-31T03:35:45.329Z,71.27
2022-12-31T03:38:12.166Z,76.37
2022-12-31T03:40:41.282Z,67.80
2022-12-31T03:43:08.510Z,77.37
2022-12-31T03:45:35.924Z,58.30
2022-12-31T03:48:04.730Z,66.40
2022-12-31T03:50:31.410Z,61.63
2022-12-31T03:52:58.279Z,67.43
2022-12-31T03:55:25.044Z,63.23
2022-12-31T03:57:51.986Z,66.17
2022-12-31T04:00:20.872Z,52.70
2022-12-31T04:02:48.664Z,60.80
2022-12-31T04:05:17.029Z,68.63
2022-12-31T04:07:44.045Z,69.13
2022-12-31T04:10:13.355Z,68.50
2022-12-31T04:12:40.358Z,63.33
2022-12-31T04:15:08.500Z,66.37
2022-12-31T04:17:35.289Z,53.37
2022-12-31T04:20:02.515Z,50.90
2022-12-31T04:22:29.315Z,54.03
2022-12-31T04:24:55.976Z,53.50
2022-12-31T04:27:22.954Z,55.67
2022-12-31T04:29:52.730Z,53.37
2022-12-31T04:32:19.461Z,56.83
2022-12-31T04:34:47.020Z,52.37
2022-12-31T04:37:13.835Z,53.23
2022-12-31T04:39:40.442Z,57.10
2022-12-31T04:42:07.476Z,49.30
2022-12-31T04:44:35.206Z,50.77
2022-12-31T04:47:02.278Z,59.77
2022-12-31T04:49:29.007Z,50.53
2022-12-31T04:51:55.690Z,68.87
2022-12-31T04:54:22.709Z,52.63
2022-12-31T04:56:49.421Z,49.47
2022-12-31T04:59:16.101Z,50.53
2022-12-31T05:01:42.848Z,50.23
2022-12-31T05:04:09.646Z,48.83
2022-12-31T05:06:36.489Z,47.03
2022-12-31T05:09:03.334Z,51.40
2022-12-31T05:11:30.092Z,55.33
2022-12-31T05:13:56.782Z,54.60
2022-12-31T05:16:23.580Z,53.10
2022-12-31T05:18:50.241Z,51.53
2022-12-31T05:21:21.314Z,61.33
2022-12-31T05:23:49.179Z,59.60
2022-12-31T05:26:16.777Z,105.53
2022-12-31T05:28:43.558Z,66.77
2022-12-31T05:31:14.886Z,62.27
2022-12-31T05:33:41.623Z,61.27
2022-12-31T05:36:08.345Z,65.93
2022-12-31T05:38:35.173Z,65.30
2022-12-31T05:41:04.331Z,67.33
2022-12-31T05:43:31.748Z,93.07
2022-12-31T05:46:05.420Z,82.80
2022-12-31T05:48:32.487Z,83.23
2022-12-31T05:50:59.393Z,80.73
2022-12-31T05:53:26.213Z,85.30
2022-12-31T05:55:53.298Z,93.73
2022-12-31T05:58:20.065Z,86.87
2022-12-31T06:00:46.787Z,93.77
2022-12-31T06:03:13.733Z,81.90
2022-12-31T06:05:42.489Z,79.57
2022-12-31T06:08:12.136Z,79.00
2022-12-31T06:10:40.099Z,85.33
2022-12-31T06:13:07.078Z,83.93
2022-12-31T06:15:36.711Z,70.27
2022-12-31T06:18:04.565Z,86.00
2022-12-31T06:20:31.273Z,84.70
2022-12-31T06:22:58.184Z,109.53
2022-12-31T06:25:24.836Z,111.97
2022-12-31T06:27:51.461Z,74.83
2022-12-31T06:30:18.245Z,74.90
2022-12-31T06:32:44.921Z,91.90
2022-12-31T06:35:11.672Z,80.70
2022-12-31T06:37:38.393Z,85.90
2022-12-31T06:40:05.733Z,82.57
2022-12-31T06:42:32.559Z,75.40
2022-12-31T06:44:59.382Z,101.43
2022-12-31T06:47:26.454Z,91.00
2022-12-31T06:49:53.367Z,102.90
2022-12-31T06:52:20.713Z,106.40
2022-12-31T06:54:48.048Z,129.17
2022-12-31T06:57:15.210Z,134.30
2022-12-31T06:59:46.409Z,140.73
2022-12-31T07:02:30.643Z,220.33
2022-12-31T07:05:10.264Z,150.20
2022-12-31T07:08:08.291Z,192.20
2022-12-31T07:10:39.901Z,207.38
2022-12-31T07:13:21.891Z,165.40
2022-12-31T07:15:59.750Z,111.53
2022-12-31T07:18:46.601Z,99.93
2022-12-31T07:21:16.550Z,106.00
2022-12-31T07:23:43.603Z,100.60
2022-12-31T07:26:25.930Z,93.35
2022-12-31T07:29:08.876Z,90.57
2022-12-31T07:32:13.434Z,80.50
2022-12-31T07:35:00.376Z,80.78
2022-12-31T07:37:39.788Z,76.18
2022-12-31T07:40:30.338Z,95.40
2022-12-31T07:43:15.614Z,91.22
2022-12-31T07:48:25.529Z,113.40
2022-12-31T07:50:55.694Z,115.05
2022-12-31T07:53:23.690Z,123.87
2022-12-31T07:56:01.964Z,109.60
2022-12-31T07:58:34.752Z,127.00
2022-12-31T08:01:03.303Z,134.07
2022-12-31T08:03:39.078Z,139.55
2022-12-31T08:06:12.459Z,131.23
2022-12-31T08:09:22.667Z,142.80
2022-12-31T08:11:58.480Z,109.57
2022-12-31T08:14:26.242Z,110.07
2022-12-31T08:16:53.663Z,115.45
2022-12-31T08:19:23.814Z,137.70
2022-12-31T08:22:08.104Z,134.32
2022-12-31T08:24:58.203Z,148.80
2022-12-31T08:27:27.817Z,145.43
2022-12-31T08:29:54.412Z,152.50
2022-12-31T08:32:29.244Z,142.68
2022-12-31T08:35:24.962Z,129.52
2022-12-31T08:40:47.952Z,121.53
2022-12-31T08:43:14.673Z,115.40
2022-12-31T08:45:50.171Z,120.57
2022-12-31T08:48:43.380Z,119.63
2022-12-31T08:51:18.024Z,96.80
2022-12-31T08:53:45.351Z,100.65
2022-12-31T08:56:25.663Z,392.55
2022-12-31T08:58:52.444Z,192.60
2022-12-31T09:01:24.769Z,167.23
2022-12-31T09:03:57.570Z,124.47
2022-12-31T09:06:42.753Z,128.38
2022-12-31T09:09:38.838Z,107.13
2022-12-31T09:12:23.102Z,89.90
2022-12-31T09:15:15.771Z,81.03
2022-12-31T09:17:49.904Z,42.13
2022-12-31T09:20:42.428Z,55.90
2022-12-31T09:23:11.202Z,20.98
2022-12-31T09:26:00.517Z,66.93
2022-12-31T09:28:50.313Z,69.88
2022-12-31T09:31:46.076Z,29.23
2022-12-31T09:34:22.751Z,41.47
2022-12-31T09:36:58.613Z,35.13
2022-12-31T09:39:28.002Z,23.55
2022-12-31T09:42:00.644Z,26.52
2022-12-31T09:45:04.939Z,19.15
2022-12-31T09:48:09.431Z,41.33
2022-12-31T09:51:18.082Z,59.33
2022-12-31T09:54:04.418Z,95.38
2022-12-31T09:56:42.142Z,111.90
2022-12-31T09:59:25.712Z,82.78
2022-12-31T10:02:14.224Z,83.10
2022-12-31T10:04:53.497Z,238.07
2022-12-31T10:07:52.159Z,79.05
2022-12-31T10:10:25.837Z,71.00
2022-12-31T10:13:10.028Z,70.53
2022-12-31T10:15:58.418Z,56.33
2022-12-31T10:18:42.977Z,29.92
2022-12-31T10:21:18.757Z,25.38
2022-12-31T10:24:09.638Z,37.28
2022-12-31T10:26:53.339Z,25.50
2022-12-31T10:29:27.955Z,26.80
2022-12-31T10:32:18.321Z,17.92
2022-12-31T10:34:53.661Z,9.63
2022-12-31T10:37:28.242Z,13.07
2022-12-31T10:40:17.299Z,15.25
2022-12-31T10:42:50.990Z,11.70
2022-12-31T10:45:23.982Z,13.30
2022-12-31T10:48:06.102Z,20.08
2022-12-31T10:50:51.865Z,13.32
2022-12-31T10:53:44.554Z,14.07
2022-12-31T10:57:09.242Z,12.63
2022-12-31T10:59:59.904Z,63.63
2022-12-31T11:02:54.455Z,29.63
2022-12-31T11:05:51.985Z,35.65
2022-12-31T11:08:53.940Z,22.48
2022-12-31T11:11:43.567Z,20.25
2022-12-31T11:14:28.709Z,17.88
2022-12-31T11:17:29.693Z,24.40
2022-12-31T11:20:04.052Z,19.50
2022-12-31T11:22:42.772Z,16.63
2022-12-31T11:25:12.658Z,18.95
2022-12-31T11:27:59.202Z,20.15
2022-12-31T11:30:47.727Z,13.50
2022-12-31T11:33:54.871Z,3.42
2022-12-31T11:36:36.527Z,14.75
2022-12-31T11:39:31.401Z,11.73
2022-12-31T11:42:36.036Z,28.25
2022-12-31T11:45:14.829Z,21.13
2022-12-31T11:48:29.183Z,13.88
2022-12-31T11:50:59.544Z,16.08
2022-12-31T11:53:58.084Z,20.05
2022-12-31T11:56:30.529Z,16.50
2022-12-31T11:58:57.761Z,37.28
2022-12-31T12:01:36.306Z,58.47
2022-12-31T12:04:03.652Z,13.68
2022-12-31T12:06:32.898Z,19.13
2022-12-31T12:09:04.580Z,31.08
2022-12-31T12:11:35.376Z,14.85
2022-12-31T12:14:18.151Z,20.10
2022-12-31T12:16:44.986Z,16.73
2022-12-31T12:19:18.486Z,15.63
2022-12-31T12:21:48.177Z,15.73
2022-12-31T12:24:51.719Z,22.90
2022-12-31T12:27:27.071Z,21.33
2022-12-31T12:29:53.901Z,26.52
2022-12-31T12:32:25.085Z,26.15
2022-12-31T12:34:52.757Z,24.73
2022-12-31T12:37:29.658Z,29.02
2022-12-31T12:40:21.123Z,28.10
2022-12-31T12:42:49.770Z,28.83
2022-12-31T12:45:23.808Z,30.88
2022-12-31T12:48:01.169Z,32.97
2022-12-31T12:50:46.033Z,36.00
2022-12-31T12:53:12.643Z,33.17
2022-12-31T12:56:01.189Z,28.27
2022-12-31T12:58:36.972Z,25.02
2022-12-31T13:01:15.689Z,24.33
2022-12-31T13:04:35.719Z,31.92
2022-12-31T13:07:51.229Z,40.63
2022-12-31T13:10:25.436Z,29.25
2022-12-31T13:13:23.455Z,19.40
2022-12-31T13:15:51.047Z,27.58
2022-12-31T13:18:26.703Z,27.77
2022-12-31T13:21:07.785Z,17.42
2022-12-31T13:23:43.168Z,15.75
2022-12-31T13:26:16.475Z,23.50
2022-12-31T13:28:46.490Z,25.92
2022-12-31T13:31:21.717Z,33.50
2022-12-31T13:34:06.137Z,20.83
2022-12-31T13:36:39.688Z,20.37
2022-12-31T13:39:16.971Z,23.90
2022-12-31T13:41:52.125Z,21.90
2022-12-31T13:44:18.840Z,19.75
2022-12-31T13:46:56.638Z,19.05
2022-12-31T13:49:31.706Z,21.58
2022-12-31T13:52:05.740Z,18.50
2022-12-31T13:54:38.393Z,17.07
2022-12-31T13:57:15.468Z,17.92
2022-12-31T13:59:50.274Z,22.08
2022-12-31T14:02:41.377Z,19.13
2022-12-31T14:05:11.274Z,24.50
2022-12-31T14:07:48.743Z,23.55
2022-12-31T14:10:17.230Z,27.20
2022-12-31T14:12:53.009Z,33.47
2022-12-31T14:15:47.933Z,41.55
2022-12-31T14:18:25.868Z,55.33
2022-12-31T14:21:03.159Z,61.95
2022-12-31T14:23:48.659Z,43.28
2022-12-31T14:29:12.538Z,71.90
2022-12-31T14:31:48.638Z,113.72
2022-12-31T14:34:40.784Z,134.13
2022-12-31T14:37:35.223Z,169.43
2022-12-31T14:40:39.264Z,87.88
2022-12-31T14:43:34.106Z,101.07
2022-12-31T14:46:31.983Z,83.50
2022-12-31T14:49:35.762Z,103.50
2022-12-31T14:52:29.838Z,79.60
2022-12-31T14:55:20.995Z,71.38
2022-12-31T14:58:26.329Z,61.08
2022-12-31T15:00:54.177Z,78.70
2022-12-31T15:03:34.491Z,119.20
2022-12-31T15:06:19.431Z,111.43
2022-12-31T15:08:56.338Z,192.95
2022-12-31T15:11:38.353Z,206.50
2022-12-31T15:14:45.441Z,119.32
2022-12-31T15:17:15.535Z,69.10
2022-12-31T15:20:01.222Z,76.10
2022-12-31T15:22:47.394Z,90.50
2022-12-31T15:25:39.995Z,126.20
2022-12-31T15:28:24.680Z,138.60
2022-12-31T15:31:01.807Z,127.85
2022-12-31T15:33:36.511Z,120.68
2022-12-31T15:36:18.495Z,115.85
2022-12-31T15:38:46.665Z,111.88
2022-12-31T15:41:19.397Z,118.50
2022-12-31T15:44:28.113Z,89.18
2022-12-31T15:47:04.380Z,93.10
2022-12-31T15:49:38.662Z,176.70
2022-12-31T15:52:13.329Z,236.73
2022-12-31T15:54:48.009Z,128.77
2022-12-31T15:57:19.394Z,124.57
2022-12-31T15:59:46.330Z,113.50
2022-12-31T16:02:24.148Z,110.25
2022-12-31T16:04:52.038Z,132.00
2022-12-31T16:07:18.999Z,121.70
2022-12-31T16:09:58.621Z,165.68
2022-12-31T16:12:33.099Z,139.35
2022-12-31T16:15:02.145Z,136.40
2022-12-31T16:17:34.525Z,140.82
2022-12-31T16:20:22.564Z,149.88
2022-12-31T16:22:56.287Z,128.52
2022-12-31T16:25:33.175Z,105.00
2022-12-31T16:28:03.042Z,198.45
2022-12-31T16:30:32.195Z,173.77
2022-12-31T16:33:05.614Z,147.10
2022-12-31T16:35:39.309Z,155.18
2022-12-31T16:38:17.965Z,130.05
2022-12-31T16:41:04.936Z,158.02
2022-12-31T16:43:40.181Z,189.13
2022-12-31T16:46:31.336Z,189.77
2022-12-31T16:49:16.066Z,201.20
2022-12-31T16:51:43.443Z,214.90
2022-12-31T16:54:23.759Z,195.68
2022-12-31T16:56:52.012Z,197.75
2022-12-31T16:59:35.129Z,199.85
2022-12-31T17:02:09.944Z,196.65
2022-12-31T17:04:40.004Z,197.52
2022-12-31T17:07:30.586Z,251.80
2022-12-31T17:10:03.468Z,265.77
2022-12-31T17:12:52.685Z,307.60
2022-12-31T17:15:41.590Z,275.92
2022-12-31T17:18:18.036Z,220.02
2022-12-31T17:20:46.478Z,234.98
2022-12-31T17:23:24.137Z,221.68
2022-12-31T17:25:58.953Z,257.83
2022-12-31T17:28:27.717Z,259.33
2022-12-31T17:31:01.029Z,249.75
2022-12-31T17:33:30.357Z,240.75
2022-12-31T17:36:13.793Z,241.07
2022-12-31T17:38:40.536Z,258.00
2022-12-31T17:41:08.323Z,260.40
2022-12-31T17:43:39.212Z,188.43
2022-12-31T17:46:17.175Z,173.00
2022-12-31T17:48:46.386Z,170.68
2022-12-31T17:51:13.175Z,145.48
2022-12-31T17:53:40.064Z,172.30
2022-12-31T17:56:10.377Z,181.40
2022-12-31T17:58:49.831Z,183.25
2022-12-31T18:01:21.697Z,148.75
2022-12-31T18:03:48.772Z,141.40
2022-12-31T18:06:17.293Z,162.73
2022-12-31T18:08:44.257Z,158.93
2022-12-31T18:11:20.009Z,355.52
2022-12-31T18:13:47.314Z,250.17
2022-12-31T18:16:14.834Z,232.15
2022-12-31T18:18:42.373Z,211.18
2022-12-31T18:21:18.667Z,208.37
2022-12-31T18:23:47.591Z,231.80
2022-12-31T18:26:16.951Z,165.65
2022-12-31T18:28:44.001Z,197.33
2022-12-31T18:31:15.791Z,168.35
2022-12-31T18:33:42.747Z,185.07
2022-12-31T18:36:15.529Z,148.03
2022-12-31T18:38:42.578Z,122.97
2022-12-31T18:41:21.653Z,114.30
2022-12-31T18:43:49.142Z,165.23
2022-12-31T18:46:18.369Z,125.17
2022-12-31T18:48:45.343Z,129.23
2022-12-31T18:51:19.263Z,149.27
2022-12-31T18:53:47.147Z,170.73
2022-12-31T18:56:16.636Z,168.43
2022-12-31T18:58:44.249Z,181.77
2022-12-31T19:01:26.556Z,184.80
2022-12-31T19:03:58.531Z,248.90
2022-12-31T19:06:25.809Z,247.23
2022-12-31T19:08:52.963Z,271.47
2022-12-31T19:11:21.294Z,258.83
2022-12-31T19:13:48.942Z,254.73
2022-12-31T19:16:15.937Z,176.00
2022-12-31T19:18:43.581Z,199.50
2022-12-31T19:21:15.518Z,193.47
2022-12-31T19:23:42.486Z,175.87
2022-12-31T19:26:14.505Z,182.37
2022-12-31T19:28:41.291Z,198.97
2022-12-31T19:31:08.039Z,196.33
2022-12-31T19:33:34.840Z,219.93
2022-12-31T19:36:01.721Z,215.27
2022-12-31T19:38:29.930Z,181.40
2022-12-31T19:40:56.703Z,195.60
2022-12-31T19:43:23.797Z,215.57
2022-12-31T19:45:51.426Z,211.13
2022-12-31T19:48:24.667Z,246.70
2022-12-31T19:50:55.461Z,265.93
2022-12-31T19:53:25.865Z,247.07
2022-12-31T19:55:53.733Z,242.77
2022-12-31T19:58:25.738Z,238.47
2022-12-31T20:01:01.269Z,205.37
2022-12-31T20:03:29.417Z,230.97
2022-12-31T20:06:05.496Z,223.47
2022-12-31T20:08:32.651Z,223.47
2022-12-31T20:11:11.170Z,250.30
2022-12-31T20:13:39.056Z,240.53
2022-12-31T20:16:10.996Z,237.33
2022-12-31T20:18:39.271Z,224.37
2022-12-31T20:21:17.791Z,212.13
2022-12-31T20:23:44.830Z,218.83
2022-12-31T20:26:11.930Z,206.73
2022-12-31T20:28:39.197Z,212.73
2022-12-31T20:31:11.480Z,171.90
2022-12-31T20:33:38.565Z,221.03
2022-12-31T20:36:07.442Z,189.17
2022-12-31T20:38:34.650Z,191.37
2022-12-31T20:41:06.510Z,196.13
2022-12-31T20:43:33.913Z,224.00
2022-12-31T20:46:12.417Z,232.97
2022-12-31T20:48:41.577Z,228.23
2022-12-31T20:51:08.489Z,262.50
2022-12-31T20:53:35.137Z,195.70
2022-12-31T20:56:06.106Z,243.20
2022-12-31T20:58:32.969Z,221.23
2022-12-31T21:01:00.648Z,241.83
2022-12-31T21:04:03.682Z,285.20
2022-12-31T21:06:15.713Z,269.40
2022-12-31T21:08:45.137Z,208.70
2022-12-31T21:11:30.666Z,198.33
2022-12-31T21:13:58.554Z,154.67
2022-12-31T21:16:26.480Z,213.40
2022-12-31T21:18:54.265Z,212.03
2022-12-31T21:21:21.120Z,222.77
2022-12-31T21:23:47.987Z,191.63
2022-12-31T21:26:15.004Z,169.33
2022-12-31T21:28:41.961Z,151.00
2022-12-31T21:31:12.109Z,170.70
2022-12-31T21:33:38.914Z,176.60
2022-12-31T21:36:05.902Z,157.10
2022-12-31T21:38:32.701Z,147.00
2022-12-31T21:41:03.961Z,148.43
2022-12-31T21:43:30.811Z,116.97
2022-12-31T21:46:06.197Z,140.63
2022-12-31T21:48:33.499Z,147.13
2022-12-31T21:51:13.291Z,157.37
2022-12-31T21:53:40.294Z,161.20
2022-12-31T21:56:11.794Z,186.63
2022-12-31T21:58:40.988Z,184.07
2022-12-31T22:01:28.989Z,176.37
2022-12-31T22:03:55.769Z,198.13
2022-12-31T22:06:24.229Z,200.97
2022-12-31T22:08:54.185Z,730.53
2022-12-31T22:11:23.298Z,291.60
2022-12-31T22:13:50.154Z,272.03
2022-12-31T22:16:19.122Z,260.97
2022-12-31T22:18:46.502Z,245.07
2022-12-31T22:21:24.091Z,249.27
2022-12-31T22:23:52.912Z,282.17
2022-12-31T22:26:22.669Z,354.07
2022-12-31T22:28:50.133Z,325.50
2022-12-31T22:31:20.149Z,280.57
2022-12-31T22:33:47.559Z,306.87
2022-12-31T22:36:16.941Z,294.93
2022-12-31T22:38:44.174Z,258.67
2022-12-31T22:41:13.556Z,249.83
2022-12-31T22:43:42.713Z,324.60
2022-12-31T22:46:18.743Z,293.40
2022-12-31T22:48:45.745Z,315.03
2022-12-31T22:51:14.698Z,281.40
2022-12-31T22:53:43.454Z,433.50
2022-12-31T22:56:11.890Z,186.80
2022-12-31T22:58:38.903Z,152.17
2022-12-31T23:01:07.751Z,170.70
2022-12-31T23:03:34.859Z,180.43
2022-12-31T23:06:01.568Z,238.60
2022-12-31T23:08:28.368Z,251.40
2022-12-31T23:11:01.637Z,228.50
2022-12-31T23:13:50.871Z,221.47
2022-12-31T23:16:37.857Z,151.77
2022-12-31T23:19:25.217Z,239.77
2022-12-31T23:22:11.230Z,220.87
2022-12-31T23:24:38.561Z,257.90
2022-12-31T23:27:06.156Z,253.67
2022-12-31T23:29:33.413Z,239.83
2022-12-31T23:32:00.528Z,228.10
2022-12-31T23:34:27.267Z,211.93
2022-12-31T23:36:53.991Z,271.47
2022-12-31T23:39:20.881Z,323.47
2022-12-31T23:41:48.060Z,287.03
2022-12-31T23:44:14.839Z,274.63
2022-12-31T23:46:42.373Z,277.27
2022-12-31T23:49:09.520Z,258.97
2022-12-31T23:51:37.010Z,252.47
2022-12-31T23:54:04.793Z,275.07
2022-12-31T23:56:31.564Z,203.97
2022-12-31T23:58:59.362Z,185.73
